TimePDT,TemperatureF,Dew PointF,Humidity,Sea Level PressureIn,VisibilityMPH,Wind Direction,Wind SpeedMPH,Gust SpeedMPH,PrecipitationIn,Events,Conditions,WindDirDegrees,DateUTC
12:53 AM,53.1,45.0,74,29.83,10.0,South,6.9,-,N/A,,Clear,190,2013-04-12 07:53:00
1:53 AM,51.1,45.0,80,29.84,10.0,South,9.2,-,N/A,,Clear,170,2013-04-12 08:53:00
2:53 AM,51.1,44.1,77,29.83,10.0,South,11.5,-,N/A,,Clear,180,2013-04-12 09:53:00
3:53 AM,51.1,44.1,77,29.83,10.0,South,8.1,-,N/A,,Clear,190,2013-04-12 10:53:00
4:53 AM,50.0,44.1,80,29.83,10.0,South,5.8,-,N/A,,Clear,180,2013-04-12 11:53:00
5:53 AM,48.9,44.1,83,29.83,10.0,South,6.9,-,N/A,,Clear,170,2013-04-12 12:53:00
6:53 AM,48.0,44.1,86,29.85,9.0,SSE,3.5,-,N/A,,Clear,150,2013-04-12 13:53:00
7:53 AM,52.0,44.1,74,29.87,10.0,South,8.1,-,N/A,,Clear,190,2013-04-12 14:53:00
8:53 AM,57.0,45.0,64,29.88,10.0,South,6.9,-,N/A,,Clear,190,2013-04-12 15:53:00
9:53 AM,60.1,46.0,60,29.87,10.0,Calm,Calm,-,N/A,,Clear,0,2013-04-12 16:53:00
10:53 AM,64.0,48.0,56,29.87,10.0,Calm,Calm,-,N/A,,Clear,0,2013-04-12 17:53:00
11:53 AM,68.0,48.9,50,29.86,10.0,NW,9.2,-,N/A,,Clear,320,2013-04-12 18:53:00
12:53 PM,72.0,48.0,43,29.84,10.0,NNW,8.1,-,N/A,,Clear,340,2013-04-12 19:53:00
1:53 PM,73.0,46.0,38,29.83,10.0,NNW,12.7,-,N/A,,Clear,340,2013-04-12 20:53:00
2:53 PM,77.0,44.1,31,29.80,10.0,NW,8.1,-,N/A,,Clear,320,2013-04-12 21:53:00
3:53 PM,75.9,41.0,29,29.78,10.0,WNW,13.8,-,N/A,,Clear,300,2013-04-12 22:53:00
4:53 PM,75.0,50.0,41,29.78,10.0,West,9.2,-,N/A,,Clear,280,2013-04-12 23:53:00
5:53 PM,71.1,48.0,44,29.78,10.0,West,10.4,-,N/A,,Clear,270,2013-04-13 00:53:00
6:53 PM,70.0,46.9,44,29.78,10.0,West,6.9,-,N/A,,Clear,260,2013-04-13 01:53:00
7:53 PM,66.0,43.0,43,29.78,10.0,South,11.5,-,N/A,,Clear,180,2013-04-13 02:53:00
8:53 PM,60.1,44.1,55,29.80,10.0,SSW,9.2,-,N/A,,Clear,210,2013-04-13 03:53:00
9:53 PM,55.9,44.1,64,29.83,10.0,South,11.5,-,N/A,,Clear,190,2013-04-13 04:53:00
10:53 PM,54.0,44.1,69,29.83,10.0,SSW,13.8,-,N/A,,Clear,200,2013-04-13 05:53:00
11:53 PM,53.1,44.1,71,29.83,10.0,SSW,10.4,-,N/A,,Clear,210,2013-04-13 06:53:00